sensor_id;sensor_type;location;lat;lon;timestamp;temperature;humidity
702;DHT22;334;48.808;9.222;2023-02-02T00:00:42;8.80;1.00
702;DHT22;334;48.808;9.222;2023-02-02T00:01:46;8.80;1.00
702;DHT22;334;48.808;9.222;2023-02-02T00:02:48;8.70;1.00
702;DHT22;334;48.808;9.222;2023-02-02T00:03:51;8.80;1.00
702;DHT22;334;48.808;9.222;2023-02-02T00:04:55;8.70;1.00
702;DHT22;334;48.808;9.222;2023-02-02T00:06:01;8.80;1.00
702;DHT22;334;48.808;9.222;2023-02-02T00:07:04;8.70;1.00
702;DHT22;334;48.808;9.222;2023-02-02T00:08:06;8.80;1.00
702;DHT22;334;48.808;9.222;2023-02-02T00:09:08;8.70;1.00
702;DHT22;334;48.808;9.222;2023-02-02T00:10:11;8.70;1.00
702;DHT22;334;48.808;9.222;2023-02-02T00:11:14;8.70;1.00
702;DHT22;334;48.808;9.222;2023-02-02T00:12:16;8.80;1.00
702;DHT22;334;48.808;9.222;2023-02-02T00:13:20;8.80;1.00
702;DHT22;334;48.808;9.222;2023-02-02T00:14:22;8.80;1.00
702;DHT22;334;48.808;9.222;2023-02-02T00:15:24;8.80;1.00
702;DHT22;334;48.808;9.222;2023-02-02T00:17:31;8.80;1.00
702;DHT22;334;48.808;9.222;2023-02-02T00:18:33;8.80;1.00
702;DHT22;334;48.808;9.222;2023-02-02T00:19:35;8.70;1.00
702;DHT22;334;48.808;9.222;2023-02-02T00:20:37;8.70;1.00
702;DHT22;334;48.808;9.222;2023-02-02T00:21:45;8.70;1.00
702;DHT22;334;48.808;9.222;2023-02-02T00:22:47;8.90;1.00
702;DHT22;334;48.808;9.222;2023-02-02T00:23:49;8.70;1.00
702;DHT22;334;48.808;9.222;2023-02-02T00:24:51;8.70;1.00
702;DHT22;334;48.808;9.222;2023-02-02T00:25:53;8.70;1.00
702;DHT22;334;48.808;9.222;2023-02-02T00:26:57;8.60;1.00
702;DHT22;334;48.808;9.222;2023-02-02T00:27:59;8.70;1.00
702;DHT22;334;48.808;9.222;2023-02-02T00:29:02;8.70;1.00
702;DHT22;334;48.808;9.222;2023-02-02T00:30:04;8.60;1.00
702;DHT22;334;48.808;9.222;2023-02-02T00:31:06;8.60;1.00
702;DHT22;334;48.808;9.222;2023-02-02T00:32:08;8.70;1.00
702;DHT22;334;48.808;9.222;2023-02-02T00:33:10;8.70;1.00
702;DHT22;334;48.808;9.222;2023-02-02T00:34:13;8.70;1.00
702;DHT22;334;48.808;9.222;2023-02-02T00:35:15;8.70;1.00
702;DHT22;334;48.808;9.222;2023-02-02T00:36:18;8.70;1.00
702;DHT22;334;48.808;9.222;2023-02-02T00:37:21;8.70;1.00
702;DHT22;334;48.808;9.222;2023-02-02T00:38:23;8.70;1.00
702;DHT22;334;48.808;9.222;2023-02-02T00:39:25;8.70;1.00
702;DHT22;334;48.808;9.222;2023-02-02T00:40:27;8.70;1.00
702;DHT22;334;48.808;9.222;2023-02-02T00:41:29;8.70;1.00
702;DHT22;334;48.808;9.222;2023-02-02T00:42:31;8.80;1.00
702;DHT22;334;48.808;9.222;2023-02-02T00:43:33;8.70;1.00
702;DHT22;334;48.808;9.222;2023-02-02T00:44:36;8.70;1.00
702;DHT22;334;48.808;9.222;2023-02-02T00:45:56;8.70;1.00
702;DHT22;334;48.808;9.222;2023-02-02T00:46:59;8.70;1.00
702;DHT22;334;48.808;9.222;2023-02-02T00:48:00;8.70;1.00
702;DHT22;334;48.808;9.222;2023-02-02T00:49:02;8.70;1.00
702;DHT22;334;48.808;9.222;2023-02-02T00:50:05;8.60;1.00
702;DHT22;334;48.808;9.222;2023-02-02T00:51:10;8.70;1.00
702;DHT22;334;48.808;9.222;2023-02-02T00:52:12;8.60;1.00
702;DHT22;334;48.808;9.222;2023-02-02T00:53:14;8.70;1.00
702;DHT22;334;48.808;9.222;2023-02-02T00:54:16;8.70;1.00
702;DHT22;334;48.808;9.222;2023-02-02T00:55:18;8.70;1.00
702;DHT22;334;48.808;9.222;2023-02-02T00:56:20;8.70;1.00
702;DHT22;334;48.808;9.222;2023-02-02T00:57:22;8.70;1.00
702;DHT22;334;48.808;9.222;2023-02-02T00:58:24;8.70;1.00
702;DHT22;334;48.808;9.222;2023-02-02T00:59:26;8.70;1.00
702;DHT22;334;48.808;9.222;2023-02-02T01:00:27;8.70;1.00
702;DHT22;334;48.808;9.222;2023-02-02T01:01:29;8.70;1.00
702;DHT22;334;48.808;9.222;2023-02-02T01:02:33;8.70;1.00
702;DHT22;334;48.808;9.222;2023-02-02T01:03:38;8.70;1.00
702;DHT22;334;48.808;9.222;2023-02-02T01:04:40;8.70;1.00
702;DHT22;334;48.808;9.222;2023-02-02T01:05:41;8.70;1.00
702;DHT22;334;48.808;9.222;2023-02-02T01:06:43;8.70;1.00
702;DHT22;334;48.808;9.222;2023-02-02T01:07:46;8.70;1.00
702;DHT22;334;48.808;9.222;2023-02-02T01:08:48;8.60;1.00
702;DHT22;334;48.808;9.222;2023-02-02T01:09:50;8.60;1.00
702;DHT22;334;48.808;9.222;2023-02-02T01:10:52;8.60;1.00
702;DHT22;334;48.808;9.222;2023-02-02T01:11:54;8.70;1.00
702;DHT22;334;48.808;9.222;2023-02-02T01:12:56;8.70;1.00
702;DHT22;334;48.808;9.222;2023-02-02T01:13:57;8.70;1.00
702;DHT22;334;48.808;9.222;2023-02-02T01:15:00;8.60;1.00
702;DHT22;334;48.808;9.222;2023-02-02T01:16:03;8.60;1.00
702;DHT22;334;48.808;9.222;2023-02-02T01:17:07;8.60;1.00
702;DHT22;334;48.808;9.222;2023-02-02T01:18:09;8.60;1.00
702;DHT22;334;48.808;9.222;2023-02-02T01:19:12;8.60;1.00
702;DHT22;334;48.808;9.222;2023-02-02T01:20:18;8.60;1.00
702;DHT22;334;48.808;9.222;2023-02-02T01:21:37;8.60;1.00
702;DHT22;334;48.808;9.222;2023-02-02T01:22:39;8.60;1.00
702;DHT22;334;48.808;9.222;2023-02-02T01:23:41;8.60;1.00
702;DHT22;334;48.808;9.222;2023-02-02T01:24:42;8.60;1.00
702;DHT22;334;48.808;9.222;2023-02-02T01:25:44;8.60;1.00
702;DHT22;334;48.808;9.222;2023-02-02T01:26:46;8.70;1.00
702;DHT22;334;48.808;9.222;2023-02-02T01:27:48;8.60;1.00
702;DHT22;334;48.808;9.222;2023-02-02T01:28:50;8.70;1.00
702;DHT22;334;48.808;9.222;2023-02-02T01:29:52;8.70;1.00
702;DHT22;334;48.808;9.222;2023-02-02T01:30:55;8.60;1.00
702;DHT22;334;48.808;9.222;2023-02-02T01:31:57;8.60;1.00
702;DHT22;334;48.808;9.222;2023-02-02T01:33:00;8.70;1.00
702;DHT22;334;48.808;9.222;2023-02-02T01:34:02;8.60;1.00
702;DHT22;334;48.808;9.222;2023-02-02T01:35:04;8.60;1.00
702;DHT22;334;48.808;9.222;2023-02-02T01:36:11;8.70;1.00
702;DHT22;334;48.808;9.222;2023-02-02T01:37:13;8.70;1.00
702;DHT22;334;48.808;9.222;2023-02-02T01:38:16;8.70;1.00
702;DHT22;334;48.808;9.222;2023-02-02T01:39:18;8.70;1.00
702;DHT22;334;48.808;9.222;2023-02-02T01:40:20;8.70;1.00
702;DHT22;334;48.808;9.222;2023-02-02T01:41:24;8.80;1.00
702;DHT22;334;48.808;9.222;2023-02-02T01:42:27;8.80;1.00
702;DHT22;334;48.808;9.222;2023-02-02T01:46:39;8.80;1.00
702;DHT22;334;48.808;9.222;2023-02-02T01:47:50;8.70;1.00
702;DHT22;334;48.808;9.222;2023-02-02T01:49:06;8.70;1.00
702;DHT22;334;48.808;9.222;2023-02-02T01:50:10;8.70;1.00
702;DHT22;334;48.808;9.222;2023-02-02T01:51:37;8.60;1.00
702;DHT22;334;48.808;9.222;2023-02-02T01:52:43;8.60;1.00
702;DHT22;334;48.808;9.222;2023-02-02T01:53:47;8.60;1.00
702;DHT22;334;48.808;9.222;2023-02-02T01:54:53;8.60;1.00
702;DHT22;334;48.808;9.222;2023-02-02T01:55:57;8.70;1.00
702;DHT22;334;48.808;9.222;2023-02-02T01:57:07;8.60;1.00
702;DHT22;334;48.808;9.222;2023-02-02T01:58:17;8.60;1.00
702;DHT22;334;48.808;9.222;2023-02-02T01:59:20;8.50;1.00
702;DHT22;334;48.808;9.222;2023-02-02T02:00:24;8.50;1.00
702;DHT22;334;48.808;9.222;2023-02-02T02:01:28;8.60;1.00
702;DHT22;334;48.808;9.222;2023-02-02T02:02:31;8.50;1.00
702;DHT22;334;48.808;9.222;2023-02-02T02:03:34;8.50;1.00
702;DHT22;334;48.808;9.222;2023-02-02T02:04:38;8.50;1.00
702;DHT22;334;48.808;9.222;2023-02-02T02:05:47;8.50;1.00
702;DHT22;334;48.808;9.222;2023-02-02T02:06:50;8.50;1.00
702;DHT22;334;48.808;9.222;2023-02-02T02:08:01;8.50;1.00
702;DHT22;334;48.808;9.222;2023-02-02T02:09:05;8.60;1.00
702;DHT22;334;48.808;9.222;2023-02-02T02:10:08;8.60;1.00
702;DHT22;334;48.808;9.222;2023-02-02T02:11:09;8.50;1.00
702;DHT22;334;48.808;9.222;2023-02-02T02:12:13;8.60;1.00
702;DHT22;334;48.808;9.222;2023-02-02T02:13:16;8.50;1.00
702;DHT22;334;48.808;9.222;2023-02-02T02:14:19;8.60;1.00
702;DHT22;334;48.808;9.222;2023-02-02T02:15:52;8.60;1.00
702;DHT22;334;48.808;9.222;2023-02-02T02:19:15;8.60;1.00
702;DHT22;334;48.808;9.222;2023-02-02T02:21:31;8.60;1.00
702;DHT22;334;48.808;9.222;2023-02-02T02:22:56;8.60;1.00
702;DHT22;334;48.808;9.222;2023-02-02T02:34:41;8.40;1.00
702;DHT22;334;48.808;9.222;2023-02-02T02:36:11;8.40;1.00
702;DHT22;334;48.808;9.222;2023-02-02T02:39:02;8.50;1.00
702;DHT22;334;48.808;9.222;2023-02-02T02:40:21;8.40;1.00
702;DHT22;334;48.808;9.222;2023-02-02T02:41:29;8.40;1.00
702;DHT22;334;48.808;9.222;2023-02-02T02:42:38;8.30;1.00
702;DHT22;334;48.808;9.222;2023-02-02T02:43:55;8.30;1.00
702;DHT22;334;48.808;9.222;2023-02-02T02:45:01;8.30;1.00
702;DHT22;334;48.808;9.222;2023-02-02T02:46:05;8.40;1.00
702;DHT22;334;48.808;9.222;2023-02-02T02:47:10;8.40;1.00
702;DHT22;334;48.808;9.222;2023-02-02T02:48:12;8.30;1.00
702;DHT22;334;48.808;9.222;2023-02-02T02:49:14;8.30;1.00
702;DHT22;334;48.808;9.222;2023-02-02T02:50:16;8.50;1.00
702;DHT22;334;48.808;9.222;2023-02-02T02:51:47;8.40;1.00
702;DHT22;334;48.808;9.222;2023-02-02T02:52:58;8.40;1.00
702;DHT22;334;48.808;9.222;2023-02-02T02:54:02;8.40;1.00
702;DHT22;334;48.808;9.222;2023-02-02T02:55:06;8.40;1.00
702;DHT22;334;48.808;9.222;2023-02-02T02:56:19;8.30;1.00
702;DHT22;334;48.808;9.222;2023-02-02T02:58:41;8.40;1.00
702;DHT22;334;48.808;9.222;2023-02-02T03:00:14;8.40;1.00
702;DHT22;334;48.808;9.222;2023-02-02T03:01:44;8.50;1.00
702;DHT22;334;48.808;9.222;2023-02-02T03:04:04;8.40;1.00
702;DHT22;334;48.808;9.222;2023-02-02T03:05:00;8.40;1.00
702;DHT22;334;48.808;9.222;2023-02-02T03:06:22;8.40;1.00
702;DHT22;334;48.808;9.222;2023-02-02T03:09:05;8.40;1.00
702;DHT22;334;48.808;9.222;2023-02-02T03:10:12;8.40;1.00
702;DHT22;334;48.808;9.222;2023-02-02T03:11:14;8.40;1.00
702;DHT22;334;48.808;9.222;2023-02-02T03:12:17;8.40;1.00
702;DHT22;334;48.808;9.222;2023-02-02T03:13:19;8.40;1.00
702;DHT22;334;48.808;9.222;2023-02-02T03:14:22;8.40;1.00
702;DHT22;334;48.808;9.222;2023-02-02T03:15:24;8.40;1.00
702;DHT22;334;48.808;9.222;2023-02-02T03:16:26;8.40;1.00
702;DHT22;334;48.808;9.222;2023-02-02T03:17:30;8.40;1.00
702;DHT22;334;48.808;9.222;2023-02-02T03:18:32;8.40;1.00
702;DHT22;334;48.808;9.222;2023-02-02T03:19:34;8.50;1.00
702;DHT22;334;48.808;9.222;2023-02-02T03:21:04;8.50;1.00
702;DHT22;334;48.808;9.222;2023-02-02T03:22:06;8.50;1.00
702;DHT22;334;48.808;9.222;2023-02-02T03:23:08;8.60;1.00
702;DHT22;334;48.808;9.222;2023-02-02T03:24:12;8.60;1.00
702;DHT22;334;48.808;9.222;2023-02-02T03:25:13;8.60;1.00
702;DHT22;334;48.808;9.222;2023-02-02T03:26:19;8.50;1.00
702;DHT22;334;48.808;9.222;2023-02-02T03:27:22;8.50;1.00
702;DHT22;334;48.808;9.222;2023-02-02T03:28:24;8.50;1.00
702;DHT22;334;48.808;9.222;2023-02-02T03:29:27;8.50;1.00
702;DHT22;334;48.808;9.222;2023-02-02T03:30:29;8.50;1.00
702;DHT22;334;48.808;9.222;2023-02-02T03:31:32;8.50;1.00
702;DHT22;334;48.808;9.222;2023-02-02T03:32:34;8.50;1.00
702;DHT22;334;48.808;9.222;2023-02-02T03:33:37;8.50;1.00
702;DHT22;334;48.808;9.222;2023-02-02T03:34:39;8.50;1.00
702;DHT22;334;48.808;9.222;2023-02-02T03:35:41;8.50;1.00
702;DHT22;334;48.808;9.222;2023-02-02T03:36:42;8.50;1.00
702;DHT22;334;48.808;9.222;2023-02-02T03:37:44;8.50;1.00
702;DHT22;334;48.808;9.222;2023-02-02T03:38:47;8.50;1.00
702;DHT22;334;48.808;9.222;2023-02-02T03:39:49;8.50;1.00
702;DHT22;334;48.808;9.222;2023-02-02T03:40:54;8.60;1.00
702;DHT22;334;48.808;9.222;2023-02-02T03:41:56;8.60;1.00
702;DHT22;334;48.808;9.222;2023-02-02T03:42:59;8.60;1.00
702;DHT22;334;48.808;9.222;2023-02-02T03:44:01;8.60;1.00
702;DHT22;334;48.808;9.222;2023-02-02T03:45:03;8.60;1.00
702;DHT22;334;48.808;9.222;2023-02-02T03:46:06;8.50;1.00
702;DHT22;334;48.808;9.222;2023-02-02T03:47:08;8.50;1.00
702;DHT22;334;48.808;9.222;2023-02-02T03:48:10;8.50;1.00
702;DHT22;334;48.808;9.222;2023-02-02T03:49:12;8.50;1.00
702;DHT22;334;48.808;9.222;2023-02-02T03:50:14;8.60;1.00
702;DHT22;334;48.808;9.222;2023-02-02T03:51:16;8.60;1.00
702;DHT22;334;48.808;9.222;2023-02-02T03:52:18;8.60;1.00
702;DHT22;334;48.808;9.222;2023-02-02T03:53:20;8.50;1.00
702;DHT22;334;48.808;9.222;2023-02-02T03:54:24;8.60;1.00
702;DHT22;334;48.808;9.222;2023-02-02T03:55:25;8.60;1.00
702;DHT22;334;48.808;9.222;2023-02-02T03:56:27;8.60;1.00
702;DHT22;334;48.808;9.222;2023-02-02T03:57:29;8.60;1.00
702;DHT22;334;48.808;9.222;2023-02-02T03:58:31;8.60;1.00
702;DHT22;334;48.808;9.222;2023-02-02T03:59:33;8.60;1.00
702;DHT22;334;48.808;9.222;2023-02-02T04:00:35;8.60;1.00
702;DHT22;334;48.808;9.222;2023-02-02T04:01:37;8.70;1.00
702;DHT22;334;48.808;9.222;2023-02-02T04:02:39;8.70;1.00
702;DHT22;334;48.808;9.222;2023-02-02T04:03:41;8.60;1.00
702;DHT22;334;48.808;9.222;2023-02-02T04:04:43;8.60;1.00
702;DHT22;334;48.808;9.222;2023-02-02T04:05:48;8.70;1.00
702;DHT22;334;48.808;9.222;2023-02-02T04:06:50;8.70;1.00
702;DHT22;334;48.808;9.222;2023-02-02T04:07:52;8.60;1.00
702;DHT22;334;48.808;9.222;2023-02-02T04:08:54;8.70;1.00
702;DHT22;334;48.808;9.222;2023-02-02T04:09:56;8.70;1.00
702;DHT22;334;48.808;9.222;2023-02-02T04:10:58;8.60;1.00
702;DHT22;334;48.808;9.222;2023-02-02T04:12:01;8.60;1.00
702;DHT22;334;48.808;9.222;2023-02-02T04:13:04;8.70;1.00
702;DHT22;334;48.808;9.222;2023-02-02T04:14:06;8.70;1.00
702;DHT22;334;48.808;9.222;2023-02-02T04:15:08;8.60;1.00
702;DHT22;334;48.808;9.222;2023-02-02T04:16:11;8.60;1.00
702;DHT22;334;48.808;9.222;2023-02-02T04:17:13;8.70;1.00
702;DHT22;334;48.808;9.222;2023-02-02T04:18:14;8.60;1.00
702;DHT22;334;48.808;9.222;2023-02-02T04:19:16;8.60;1.00
702;DHT22;334;48.808;9.222;2023-02-02T04:20:18;8.60;1.00
702;DHT22;334;48.808;9.222;2023-02-02T04:21:20;8.70;1.00
702;DHT22;334;48.808;9.222;2023-02-02T04:22:23;8.70;1.00
702;DHT22;334;48.808;9.222;2023-02-02T04:23:25;8.50;1.00
702;DHT22;334;48.808;9.222;2023-02-02T04:24:27;8.60;1.00
702;DHT22;334;48.808;9.222;2023-02-02T04:25:29;8.60;1.00
702;DHT22;334;48.808;9.222;2023-02-02T04:26:31;8.70;1.00
702;DHT22;334;48.808;9.222;2023-02-02T04:27:33;8.60;1.00
702;DHT22;334;48.808;9.222;2023-02-02T04:28:35;8.60;1.00
702;DHT22;334;48.808;9.222;2023-02-02T04:29:37;8.60;1.00
702;DHT22;334;48.808;9.222;2023-02-02T04:30:38;8.60;1.00
702;DHT22;334;48.808;9.222;2023-02-02T04:31:40;8.70;1.00
702;DHT22;334;48.808;9.222;2023-02-02T04:32:42;8.70;1.00
702;DHT22;334;48.808;9.222;2023-02-02T04:33:45;8.70;1.00
702;DHT22;334;48.808;9.222;2023-02-02T04:34:47;8.70;1.00
702;DHT22;334;48.808;9.222;2023-02-02T04:35:49;8.70;1.00
702;DHT22;334;48.808;9.222;2023-02-02T04:36:52;8.80;1.00
702;DHT22;334;48.808;9.222;2023-02-02T04:37:54;8.70;1.00
702;DHT22;334;48.808;9.222;2023-02-02T04:38:56;8.80;1.00
702;DHT22;334;48.808;9.222;2023-02-02T04:39:58;8.80;1.00
702;DHT22;334;48.808;9.222;2023-02-02T04:41:06;8.80;1.00
702;DHT22;334;48.808;9.222;2023-02-02T04:42:10;8.90;1.00
702;DHT22;334;48.808;9.222;2023-02-02T04:43:14;8.80;1.00
702;DHT22;334;48.808;9.222;2023-02-02T04:44:16;8.70;1.00
702;DHT22;334;48.808;9.222;2023-02-02T04:45:18;8.70;1.00
702;DHT22;334;48.808;9.222;2023-02-02T04:46:20;8.70;1.00
702;DHT22;334;48.808;9.222;2023-02-02T04:47:21;8.80;1.00
702;DHT22;334;48.808;9.222;2023-02-02T04:48:23;8.80;1.00
702;DHT22;334;48.808;9.222;2023-02-02T04:49:25;8.50;1.00
702;DHT22;334;48.808;9.222;2023-02-02T04:50:28;8.80;1.00
702;DHT22;334;48.808;9.222;2023-02-02T04:51:30;8.80;1.00
702;DHT22;334;48.808;9.222;2023-02-02T04:52:32;8.70;1.00
702;DHT22;334;48.808;9.222;2023-02-02T04:53:34;8.70;1.00
702;DHT22;334;48.808;9.222;2023-02-02T04:54:36;8.70;1.00
702;DHT22;334;48.808;9.222;2023-02-02T04:55:38;8.70;1.00
702;DHT22;334;48.808;9.222;2023-02-02T04:56:39;8.80;1.00
702;DHT22;334;48.808;9.222;2023-02-02T04:57:41;8.80;1.00
702;DHT22;334;48.808;9.222;2023-02-02T04:58:44;8.80;1.00
702;DHT22;334;48.808;9.222;2023-02-02T04:59:46;8.80;1.00
702;DHT22;334;48.808;9.222;2023-02-02T05:00:48;8.80;1.00
702;DHT22;334;48.808;9.222;2023-02-02T05:01:50;8.80;1.00
702;DHT22;334;48.808;9.222;2023-02-02T05:02:52;8.80;1.00
702;DHT22;334;48.808;9.222;2023-02-02T05:03:54;8.70;1.00
702;DHT22;334;48.808;9.222;2023-02-02T05:04:55;8.60;1.00
702;DHT22;334;48.808;9.222;2023-02-02T05:06:01;8.70;1.00
702;DHT22;334;48.808;9.222;2023-02-02T05:07:03;8.70;1.00
702;DHT22;334;48.808;9.222;2023-02-02T05:08:05;8.70;1.00
702;DHT22;334;48.808;9.222;2023-02-02T05:09:09;8.70;1.00
702;DHT22;334;48.808;9.222;2023-02-02T05:10:11;8.70;1.00
702;DHT22;334;48.808;9.222;2023-02-02T05:11:19;8.70;1.00
702;DHT22;334;48.808;9.222;2023-02-02T05:12:25;8.70;1.00
702;DHT22;334;48.808;9.222;2023-02-02T05:13:27;8.70;1.00
702;DHT22;334;48.808;9.222;2023-02-02T05:14:29;8.70;1.00
702;DHT22;334;48.808;9.222;2023-02-02T05:15:30;8.60;1.00
702;DHT22;334;48.808;9.222;2023-02-02T05:16:32;8.70;1.00
702;DHT22;334;48.808;9.222;2023-02-02T05:17:34;8.70;1.00
702;DHT22;334;48.808;9.222;2023-02-02T05:18:36;8.70;1.00
702;DHT22;334;48.808;9.222;2023-02-02T05:19:38;8.70;1.00
702;DHT22;334;48.808;9.222;2023-02-02T05:20:40;8.70;1.00
702;DHT22;334;48.808;9.222;2023-02-02T05:21:43;8.70;1.00
702;DHT22;334;48.808;9.222;2023-02-02T05:22:51;8.70;1.00
702;DHT22;334;48.808;9.222;2023-02-02T05:23:53;8.70;1.00
702;DHT22;334;48.808;9.222;2023-02-02T05:24:55;8.70;1.00
702;DHT22;334;48.808;9.222;2023-02-02T05:25:58;8.80;1.00
702;DHT22;334;48.808;9.222;2023-02-02T05:27:00;8.80;1.00
702;DHT22;334;48.808;9.222;2023-02-02T05:28:01;8.90;1.00
702;DHT22;334;48.808;9.222;2023-02-02T05:29:04;8.70;1.00
702;DHT22;334;48.808;9.222;2023-02-02T05:30:09;8.70;1.00
702;DHT22;334;48.808;9.222;2023-02-02T05:31:12;8.70;1.00
702;DHT22;334;48.808;9.222;2023-02-02T05:32:14;8.70;1.00
702;DHT22;334;48.808;9.222;2023-02-02T05:33:16;8.70;1.00
702;DHT22;334;48.808;9.222;2023-02-02T05:34:20;8.70;1.00
702;DHT22;334;48.808;9.222;2023-02-02T05:35:23;8.80;1.00
702;DHT22;334;48.808;9.222;2023-02-02T05:36:26;8.80;1.00
702;DHT22;334;48.808;9.222;2023-02-02T05:37:28;8.80;1.00
702;DHT22;334;48.808;9.222;2023-02-02T05:38:30;8.70;1.00
702;DHT22;334;48.808;9.222;2023-02-02T05:39:31;8.70;1.00
702;DHT22;334;48.808;9.222;2023-02-02T05:40:34;8.80;1.00
702;DHT22;334;48.808;9.222;2023-02-02T05:41:35;8.80;1.00
702;DHT22;334;48.808;9.222;2023-02-02T05:42:37;8.70;1.00
702;DHT22;334;48.808;9.222;2023-02-02T05:43:39;8.80;1.00
702;DHT22;334;48.808;9.222;2023-02-02T05:44:41;8.80;1.00
702;DHT22;334;48.808;9.222;2023-02-02T05:45:43;8.80;1.00
702;DHT22;334;48.808;9.222;2023-02-02T05:46:45;8.80;1.00
702;DHT22;334;48.808;9.222;2023-02-02T05:47:47;9.00;1.00
702;DHT22;334;48.808;9.222;2023-02-02T05:48:49;8.80;1.00
702;DHT22;334;48.808;9.222;2023-02-02T05:49:51;8.70;1.00
702;DHT22;334;48.808;9.222;2023-02-02T05:52:17;8.70;1.00
702;DHT22;334;48.808;9.222;2023-02-02T05:53:20;8.80;1.00
702;DHT22;334;48.808;9.222;2023-02-02T05:54:22;8.70;1.00
702;DHT22;334;48.808;9.222;2023-02-02T05:55:24;8.70;1.00
702;DHT22;334;48.808;9.222;2023-02-02T05:56:26;8.80;1.00
702;DHT22;334;48.808;9.222;2023-02-02T05:57:28;8.70;1.00
702;DHT22;334;48.808;9.222;2023-02-02T05:58:30;8.70;1.00
702;DHT22;334;48.808;9.222;2023-02-02T05:59:32;8.60;1.00
702;DHT22;334;48.808;9.222;2023-02-02T06:00:34;8.60;1.00
702;DHT22;334;48.808;9.222;2023-02-02T06:01:45;8.60;1.00
702;DHT22;334;48.808;9.222;2023-02-02T06:02:47;8.70;1.00
702;DHT22;334;48.808;9.222;2023-02-02T06:03:49;8.70;1.00
702;DHT22;334;48.808;9.222;2023-02-02T06:04:50;8.70;1.00
702;DHT22;334;48.808;9.222;2023-02-02T06:05:53;8.80;1.00
702;DHT22;334;48.808;9.222;2023-02-02T06:06:55;8.80;1.00
702;DHT22;334;48.808;9.222;2023-02-02T06:07:57;8.80;1.00
702;DHT22;334;48.808;9.222;2023-02-02T06:08:59;8.80;1.00
702;DHT22;334;48.808;9.222;2023-02-02T06:10:01;8.80;1.00
702;DHT22;334;48.808;9.222;2023-02-02T06:11:14;8.80;1.00
702;DHT22;334;48.808;9.222;2023-02-02T06:12:16;8.80;1.00
702;DHT22;334;48.808;9.222;2023-02-02T06:13:19;8.80;1.00
702;DHT22;334;48.808;9.222;2023-02-02T06:14:21;8.80;1.00
702;DHT22;334;48.808;9.222;2023-02-02T06:15:24;8.80;1.00
702;DHT22;334;48.808;9.222;2023-02-02T06:16:28;8.80;1.00
702;DHT22;334;48.808;9.222;2023-02-02T06:17:30;8.80;1.00
702;DHT22;334;48.808;9.222;2023-02-02T06:18:33;8.70;1.00
702;DHT22;334;48.808;9.222;2023-02-02T06:19:35;8.70;1.00
702;DHT22;334;48.808;9.222;2023-02-02T06:20:37;8.70;1.00
702;DHT22;334;48.808;9.222;2023-02-02T06:21:53;8.80;1.00
702;DHT22;334;48.808;9.222;2023-02-02T06:22:55;8.70;1.00
702;DHT22;334;48.808;9.222;2023-02-02T06:23:57;8.80;1.00
702;DHT22;334;48.808;9.222;2023-02-02T06:25:01;8.70;1.00
702;DHT22;334;48.808;9.222;2023-02-02T06:26:05;8.70;1.00
702;DHT22;334;48.808;9.222;2023-02-02T06:27:08;8.70;1.00
702;DHT22;334;48.808;9.222;2023-02-02T06:28:10;8.60;1.00
702;DHT22;334;48.808;9.222;2023-02-02T06:29:12;8.70;1.00
702;DHT22;334;48.808;9.222;2023-02-02T06:30:15;8.70;1.00
702;DHT22;334;48.808;9.222;2023-02-02T06:31:18;8.70;1.00
702;DHT22;334;48.808;9.222;2023-02-02T06:32:20;8.80;1.00
702;DHT22;334;48.808;9.222;2023-02-02T06:33:22;8.80;1.00
702;DHT22;334;48.808;9.222;2023-02-02T06:34:24;8.80;1.00
702;DHT22;334;48.808;9.222;2023-02-02T06:35:26;8.80;1.00
702;DHT22;334;48.808;9.222;2023-02-02T06:36:28;8.80;1.00
702;DHT22;334;48.808;9.222;2023-02-02T06:37:30;8.80;1.00
702;DHT22;334;48.808;9.222;2023-02-02T06:38:32;8.80;1.00
702;DHT22;334;48.808;9.222;2023-02-02T06:39:35;8.80;1.00
702;DHT22;334;48.808;9.222;2023-02-02T06:40:37;8.90;1.00
702;DHT22;334;48.808;9.222;2023-02-02T06:41:38;8.90;1.00
702;DHT22;334;48.808;9.222;2023-02-02T06:42:41;8.90;1.00
702;DHT22;334;48.808;9.222;2023-02-02T06:43:42;8.90;1.00
702;DHT22;334;48.808;9.222;2023-02-02T06:44:44;8.90;1.00
702;DHT22;334;48.808;9.222;2023-02-02T06:45:46;8.90;1.00
702;DHT22;334;48.808;9.222;2023-02-02T06:46:48;8.80;1.00
702;DHT22;334;48.808;9.222;2023-02-02T06:47:52;8.80;1.00
702;DHT22;334;48.808;9.222;2023-02-02T06:48:55;8.80;1.00
702;DHT22;334;48.808;9.222;2023-02-02T06:49:56;8.70;1.00
702;DHT22;334;48.808;9.222;2023-02-02T06:50:59;8.70;1.00
702;DHT22;334;48.808;9.222;2023-02-02T06:52:01;8.70;1.00
702;DHT22;334;48.808;9.222;2023-02-02T06:53:03;8.70;1.00
702;DHT22;334;48.808;9.222;2023-02-02T06:54:05;8.70;1.00
702;DHT22;334;48.808;9.222;2023-02-02T06:55:07;8.80;1.00
702;DHT22;334;48.808;9.222;2023-02-02T06:56:11;8.80;1.00
702;DHT22;334;48.808;9.222;2023-02-02T06:57:13;8.70;1.00
702;DHT22;334;48.808;9.222;2023-02-02T06:58:15;8.70;1.00
702;DHT22;334;48.808;9.222;2023-02-02T06:59:25;8.70;1.00
702;DHT22;334;48.808;9.222;2023-02-02T07:00:28;8.80;1.00
702;DHT22;334;48.808;9.222;2023-02-02T07:01:30;8.80;1.00
702;DHT22;334;48.808;9.222;2023-02-02T07:02:33;8.80;1.00
702;DHT22;334;48.808;9.222;2023-02-02T07:03:35;8.80;1.00
702;DHT22;334;48.808;9.222;2023-02-02T07:04:38;8.80;1.00
702;DHT22;334;48.808;9.222;2023-02-02T07:05:40;8.80;1.00
702;DHT22;334;48.808;9.222;2023-02-02T07:06:42;8.80;1.00
702;DHT22;334;48.808;9.222;2023-02-02T07:07:44;8.80;1.00
702;DHT22;334;48.808;9.222;2023-02-02T07:08:46;8.80;1.00
702;DHT22;334;48.808;9.222;2023-02-02T07:10:03;8.80;1.00
702;DHT22;334;48.808;9.222;2023-02-02T07:11:05;8.80;1.00
702;DHT22;334;48.808;9.222;2023-02-02T07:12:16;8.80;1.00
702;DHT22;334;48.808;9.222;2023-02-02T07:13:21;8.90;1.00
702;DHT22;334;48.808;9.222;2023-02-02T07:14:23;8.90;1.00
702;DHT22;334;48.808;9.222;2023-02-02T07:15:25;8.90;1.00
702;DHT22;334;48.808;9.222;2023-02-02T07:16:27;8.90;1.00
702;DHT22;334;48.808;9.222;2023-02-02T07:17:29;8.90;1.00
702;DHT22;334;48.808;9.222;2023-02-02T07:18:31;8.90;1.00
702;DHT22;334;48.808;9.222;2023-02-02T07:19:33;9.00;1.00
702;DHT22;334;48.808;9.222;2023-02-02T07:20:34;8.90;1.00
702;DHT22;334;48.808;9.222;2023-02-02T07:21:36;9.00;1.00
702;DHT22;334;48.808;9.222;2023-02-02T07:22:39;9.00;1.00
702;DHT22;334;48.808;9.222;2023-02-02T07:23:42;9.00;1.00
702;DHT22;334;48.808;9.222;2023-02-02T07:24:45;9.00;1.00
702;DHT22;334;48.808;9.222;2023-02-02T07:25:47;9.00;1.00
702;DHT22;334;48.808;9.222;2023-02-02T07:26:49;9.00;1.00
702;DHT22;334;48.808;9.222;2023-02-02T07:27:53;8.90;1.00
702;DHT22;334;48.808;9.222;2023-02-02T07:28:55;9.00;1.00
702;DHT22;334;48.808;9.222;2023-02-02T07:29:58;8.90;1.00
702;DHT22;334;48.808;9.222;2023-02-02T07:31:00;9.00;1.00
702;DHT22;334;48.808;9.222;2023-02-02T07:32:03;8.90;1.00
702;DHT22;334;48.808;9.222;2023-02-02T07:33:05;8.90;1.00
702;DHT22;334;48.808;9.222;2023-02-02T07:34:07;8.90;1.00
702;DHT22;334;48.808;9.222;2023-02-02T07:35:09;8.90;1.00
702;DHT22;334;48.808;9.222;2023-02-02T07:36:14;8.90;1.00
702;DHT22;334;48.808;9.222;2023-02-02T07:37:19;8.90;1.00
702;DHT22;334;48.808;9.222;2023-02-02T07:38:21;8.90;1.00
702;DHT22;334;48.808;9.222;2023-02-02T07:39:26;8.80;1.00
702;DHT22;334;48.808;9.222;2023-02-02T07:40:28;8.80;1.00
702;DHT22;334;48.808;9.222;2023-02-02T07:41:30;8.80;1.00
702;DHT22;334;48.808;9.222;2023-02-02T07:42:33;8.80;1.00
702;DHT22;334;48.808;9.222;2023-02-02T07:43:35;8.80;1.00
702;DHT22;334;48.808;9.222;2023-02-02T07:44:40;8.90;1.00
702;DHT22;334;48.808;9.222;2023-02-02T07:45:43;8.90;1.00
702;DHT22;334;48.808;9.222;2023-02-02T07:46:46;9.00;1.00
702;DHT22;334;48.808;9.222;2023-02-02T07:47:54;9.00;1.00
702;DHT22;334;48.808;9.222;2023-02-02T07:48:57;9.00;1.00
702;DHT22;334;48.808;9.222;2023-02-02T07:49:59;9.10;1.00